Time;durP1;ratioP1;P1;durP2;ratioP2;P2;SDS_P1;SDS_P2;PMS_P1;PMS_P2;Temp;Humidity;BMP_temperature;BMP_pressure;BME280_temperature;BME280_humidity;BME280_pressure;Samples;Min_cycle;Max_cycle;Signal;HPM_P1;HPM_P2
2023/12/27 00:01:14;;;;;;;11.50;10.40;;;;;;;;;;5067440;28;20063;-75
2023/12/27 00:03:45;;;;;;;10.45;9.15;;;;;;;;;;5067761;28;20052;-76
2023/12/27 00:06:15;;;;;;;11.75;9.60;;;;;;;;;;5067934;28;20052;-73
2023/12/27 00:08:46;;;;;;;9.98;9.02;;;;;;;;;;5068226;28;20052;-75
2023/12/27 00:11:21;;;;;;;11.27;9.30;;;;;;;;;;5067241;28;20059;-74
2023/12/27 00:13:52;;;;;;;9.93;9.18;;;;;;;;;;5067687;28;20041;-77
2023/12/27 00:16:23;;;;;;;10.65;9.48;;;;;;;;;;5067251;28;20855;-75
2023/12/27 00:18:54;;;;;;;14.73;11.43;;;;;;;;;;5067713;28;20499;-75
2023/12/27 00:21:24;;;;;;;11.13;10.07;;;;;;;;;;5067246;28;20056;-75
2023/12/27 00:23:56;;;;;;;12.70;11.57;;;;;;;;;;5068701;28;20044;-76
2023/12/27 00:26:27;;;;;;;13.25;9.82;;;;;;;;;;5068008;28;20048;-75
2023/12/27 00:29:00;;;;;;;14.48;11.98;;;;;;;;;;5067466;28;20044;-73
2023/12/27 00:31:30;;;;;;;11.38;10.38;;;;;;;;;;5068938;28;20063;-74
2023/12/27 00:34:02;;;;;;;12.80;11.75;;;;;;;;;;5066486;28;20060;-75
2023/12/27 00:36:34;;;;;;;11.82;10.68;;;;;;;;;;5066584;28;20048;-74
2023/12/27 00:39:08;;;;;;;15.00;12.75;;;;;;;;;;5066846;28;20044;-74
2023/12/27 00:41:38;;;;;;;15.40;12.80;;;;;;;;;;5067649;28;20048;-75
2023/12/27 00:44:09;;;;;;;17.60;16.17;;;;;;;;;;5063940;28;20602;-73
2023/12/27 00:46:42;;;;;;;16.58;15.07;;;;;;;;;;5063461;28;20427;-74
2023/12/27 00:49:13;;;;;;;20.80;18.83;;;;;;;;;;5063638;28;20415;-75
2023/12/27 00:51:44;;;;;;;24.38;22.60;;;;;;;;;;5062827;28;20044;-73
2023/12/27 00:54:15;;;;;;;22.40;20.25;;;;;;;;;;5063295;28;20059;-73
2023/12/27 00:56:49;;;;;;;23.52;21.55;;;;;;;;;;5047628;28;20051;-74
2023/12/27 00:59:21;;;;;;;19.45;17.92;;;;;;;;;;5064071;28;20040;-75
2023/12/27 01:01:51;;;;;;;19.98;18.45;;;;;;;;;;5063888;28;20043;-74
2023/12/27 01:04:21;;;;;;;20.13;18.38;;;;;;;;;;5064108;28;20044;-73
2023/12/27 01:06:53;;;;;;;22.33;20.33;;;;;;;;;;5062611;28;20040;-75
2023/12/27 01:09:25;;;;;;;20.65;19.10;;;;;;;;;;5062612;28;20052;-73
2023/12/27 01:11:56;;;;;;;22.98;21.13;;;;;;;;;;5064033;28;20045;-74
2023/12/27 01:14:27;;;;;;;24.73;22.52;;;;;;;;;;5063531;28;20063;-72
2023/12/27 01:16:58;;;;;;;22.75;21.02;;;;;;;;;;5066392;28;20914;-75
2023/12/27 01:19:29;;;;;;;21.80;20.17;;;;;;;;;;5064310;28;20040;-73
2023/12/27 01:21:59;;;;;;;22.90;20.92;;;;;;;;;;5063735;28;20048;-72
2023/12/27 01:24:30;;;;;;;21.58;20.10;;;;;;;;;;5062956;28;20434;-73
2023/12/27 01:27:01;;;;;;;25.10;23.05;;;;;;;;;;5063603;28;20055;-74
2023/12/27 01:29:32;;;;;;;25.60;23.42;;;;;;;;;;5062336;28;20044;-73
2023/12/27 01:32:02;;;;;;;22.48;20.65;;;;;;;;;;5063853;28;20045;-74
2023/12/27 01:34:33;;;;;;;25.58;23.85;;;;;;;;;;5062844;28;20067;-75
2023/12/27 01:37:07;;;;;;;24.63;22.52;;;;;;;;;;5062544;28;20048;-74
2023/12/27 01:39:38;;;;;;;26.42;24.27;;;;;;;;;;5063404;28;20107;-73
2023/12/27 01:42:09;;;;;;;25.48;23.52;;;;;;;;;;5062323;28;20080;-73
2023/12/27 01:44:39;;;;;;;26.73;24.17;;;;;;;;;;5063725;28;20040;-74
2023/12/27 01:47:13;;;;;;;26.70;24.85;;;;;;;;;;5063435;28;20096;-74
2023/12/27 01:49:44;;;;;;;28.25;25.90;;;;;;;;;;5063644;28;20052;-75
2023/12/27 01:52:15;;;;;;;27.40;25.08;;;;;;;;;;5063621;28;20538;-73
2023/12/27 01:54:45;;;;;;;29.33;26.95;;;;;;;;;;5061944;28;20056;-74
2023/12/27 01:57:18;;;;;;;30.02;27.65;;;;;;;;;;5063694;28;20056;-75
2023/12/27 01:59:49;;;;;;;26.92;25.02;;;;;;;;;;5061791;28;20055;-74
2023/12/27 02:02:20;;;;;;;30.08;28.08;;;;;;;;;;5061675;28;20415;-75
2023/12/27 02:04:50;;;;;;;32.40;29.60;;;;;;;;;;5063452;28;20044;-73
2023/12/27 02:07:21;;;;;;;33.63;31.20;;;;;;;;;;5062124;28;20053;-76
2023/12/27 02:09:59;;;;;;;32.55;30.13;;;;;;;;;;5061398;28;20617;-74
2023/12/27 02:12:31;;;;;;;29.23;27.20;;;;;;;;;;5062358;28;20052;-73
2023/12/27 02:15:02;;;;;;;29.63;27.20;;;;;;;;;;5062834;28;20048;-74
2023/12/27 02:17:35;;;;;;;26.23;24.50;;;;;;;;;;5061559;28;20511;-75
2023/12/27 02:20:08;;;;;;;28.17;26.08;;;;;;;;;;5061279;28;20064;-73
2023/12/27 02:22:44;;;;;;;30.60;28.27;;;;;;;;;;5063108;28;20049;-74
2023/12/27 02:25:14;;;;;;;25.77;24.02;;;;;;;;;;5062834;28;20044;-74
2023/12/27 02:27:47;;;;;;;26.70;24.40;;;;;;;;;;5062422;28;20044;-74
2023/12/27 02:30:20;;;;;;;24.45;22.40;;;;;;;;;;5062222;28;20052;-74
2023/12/27 02:32:51;;;;;;;26.25;24.10;;;;;;;;;;5061839;28;20052;-73
2023/12/27 02:35:22;;;;;;;29.35;26.67;;;;;;;;;;5062465;28;20408;-74
2023/12/27 02:37:53;;;;;;;28.15;26.17;;;;;;;;;;5062222;28;20051;-75
2023/12/27 02:40:25;;;;;;;22.33;20.55;;;;;;;;;;5062606;28;20040;-74
2023/12/27 02:42:55;;;;;;;25.70;23.40;;;;;;;;;;5062461;28;20094;-73
2023/12/27 02:45:25;;;;;;;27.52;25.25;;;;;;;;;;5061863;28;20059;-76
2023/12/27 02:47:56;;;;;;;24.55;22.73;;;;;;;;;;5061051;28;20392;-73
2023/12/27 02:50:28;;;;;;;24.85;23.25;;;;;;;;;;5063330;28;20045;-75
2023/12/27 02:52:58;;;;;;;23.85;22.15;;;;;;;;;;5062588;28;20435;-74
2023/12/27 02:55:29;;;;;;;22.60;20.48;;;;;;;;;;5062410;28;20063;-74
2023/12/27 02:57:59;;;;;;;19.20;17.40;;;;;;;;;;5060697;28;20423;-74
2023/12/27 03:00:35;;;;;;;30.10;27.90;;;;;;;;;;5061848;28;20055;-73
2023/12/27 03:03:07;;;;;;;30.10;28.02;;;;;;;;;;5061533;28;20052;-75
2023/12/27 03:05:38;;;;;;;26.77;24.63;;;;;;;;;;5060737;28;20056;-74
2023/12/27 03:08:08;;;;;;;23.23;21.67;;;;;;;;;;5062156;28;20056;-75
2023/12/27 03:10:39;;;;;;;28.73;26.63;;;;;;;;;;5062914;28;20052;-74
2023/12/27 03:13:09;;;;;;;29.50;27.05;;;;;;;;;;5061921;28;20045;-73
2023/12/27 03:15:40;;;;;;;29.05;26.98;;;;;;;;;;5062087;28;20052;-74
2023/12/27 03:18:10;;;;;;;27.75;25.42;;;;;;;;;;5061175;28;20529;-73
2023/12/27 03:20:41;;;;;;;26.70;24.33;;;;;;;;;;5061287;28;20515;-74
2023/12/27 03:23:14;;;;;;;31.98;29.25;;;;;;;;;;5061650;28;20754;-74
2023/12/27 03:25:46;;;;;;;31.33;28.70;;;;;;;;;;5061159;28;20044;-74
2023/12/27 03:28:16;;;;;;;31.48;28.85;;;;;;;;;;5060340;28;20534;-74
2023/12/27 03:30:47;;;;;;;33.45;31.05;;;;;;;;;;5060865;28;20511;-74
2023/12/27 03:33:20;;;;;;;30.10;28.08;;;;;;;;;;5061707;28;20138;-73
2023/12/27 03:35:52;;;;;;;31.73;29.30;;;;;;;;;;5061056;28;20094;-74
2023/12/27 03:38:22;;;;;;;31.73;29.52;;;;;;;;;;5061382;28;20059;-73
2023/12/27 03:40:53;;;;;;;36.38;33.88;;;;;;;;;;5061271;28;20045;-75
2023/12/27 03:43:24;;;;;;;37.90;34.60;;;;;;;;;;5060132;28;20052;-75
2023/12/27 03:45:55;;;;;;;39.55;37.03;;;;;;;;;;5061525;28;20044;-73
2023/12/27 03:48:25;;;;;;;34.03;31.92;;;;;;;;;;5060882;28;20052;-73
2023/12/27 03:50:57;;;;;;;37.60;35.13;;;;;;;;;;5060180;28;20052;-74
2023/12/27 03:53:27;;;;;;;35.53;32.72;;;;;;;;;;5061260;28;20044;-74
2023/12/27 03:55:58;;;;;;;38.67;36.00;;;;;;;;;;5061351;28;20056;-74
2023/12/27 03:58:27;;;;;;;38.88;36.00;;;;;;;;;;5061331;28;20044;-73
2023/12/27 04:00:59;;;;;;;37.80;35.35;;;;;;;;;;5061064;28;20056;-74
2023/12/27 04:03:30;;;;;;;36.70;34.25;;;;;;;;;;5061564;28;20036;-74
2023/12/27 04:06:01;;;;;;;35.55;32.80;;;;;;;;;;5061283;28;20395;-73
2023/12/27 04:08:31;;;;;;;39.53;36.47;;;;;;;;;;5060805;28;20045;-74
2023/12/27 04:11:02;;;;;;;33.00;30.25;;;;;;;;;;5060843;28;20056;-74
2023/12/27 04:13:34;;;;;;;34.30;31.77;;;;;;;;;;5059262;28;20060;-75
2023/12/27 04:16:06;;;;;;;33.33;31.02;;;;;;;;;;5059857;28;20048;-74
2023/12/27 04:18:36;;;;;;;30.45;28.15;;;;;;;;;;5062210;28;20040;-73
2023/12/27 04:21:07;;;;;;;33.05;30.70;;;;;;;;;;5064948;28;20489;-73
2023/12/27 04:23:39;;;;;;;38.03;35.30;;;;;;;;;;5063659;28;20072;-73
2023/12/27 04:26:10;;;;;;;35.60;32.97;;;;;;;;;;5063093;28;20052;-74
2023/12/27 04:28:42;;;;;;;37.35;34.60;;;;;;;;;;5064904;28;20048;-74
2023/12/27 04:31:13;;;;;;;32.33;29.73;;;;;;;;;;5063822;28;20074;-74
2023/12/27 04:33:44;;;;;;;30.73;28.08;;;;;;;;;;5065067;28;20052;-73
2023/12/27 04:36:14;;;;;;;28.75;26.15;;;;;;;;;;5064604;28;20504;-73
2023/12/27 04:38:45;;;;;;;32.28;29.98;;;;;;;;;;5063328;28;20052;-75
2023/12/27 04:41:15;;;;;;;40.00;37.30;;;;;;;;;;5064099;28;20896;-74
2023/12/27 04:43:46;;;;;;;38.42;35.72;;;;;;;;;;5063216;28;20052;-73
2023/12/27 04:46:16;;;;;;;34.00;31.13;;;;;;;;;;5064111;28;20046;-74
2023/12/27 04:48:47;;;;;;;33.60;30.85;;;;;;;;;;5062837;28;20052;-73
2023/12/27 04:51:18;;;;;;;35.60;32.95;;;;;;;;;;5064892;28;20492;-74
2023/12/27 04:53:50;;;;;;;40.20;37.53;;;;;;;;;;5062247;28;20795;-74
2023/12/27 04:56:20;;;;;;;32.20;29.83;;;;;;;;;;5062755;28;20057;-74
2023/12/27 04:58:51;;;;;;;33.85;31.50;;;;;;;;;;5062680;28;20052;-75
2023/12/27 05:01:22;;;;;;;33.53;31.40;;;;;;;;;;5062603;28;20060;-74
2023/12/27 05:03:56;;;;;;;36.42;33.92;;;;;;;;;;5063804;28;20048;-74
2023/12/27 05:06:27;;;;;;;36.10;33.20;;;;;;;;;;5064175;28;20401;-74
2023/12/27 05:08:59;;;;;;;36.28;34.03;;;;;;;;;;5064799;28;20055;-74
2023/12/27 05:11:31;;;;;;;35.97;33.63;;;;;;;;;;5062104;28;20534;-73
2023/12/27 05:14:02;;;;;;;33.13;30.85;;;;;;;;;;5063449;28;20056;-74
2023/12/27 05:16:32;;;;;;;31.08;29.00;;;;;;;;;;5063697;28;20045;-74
2023/12/27 05:19:03;;;;;;;37.15;34.58;;;;;;;;;;5063419;28;20040;-74
2023/12/27 05:21:35;;;;;;;28.17;26.25;;;;;;;;;;5063272;28;20063;-74
2023/12/27 05:24:06;;;;;;;27.85;25.30;;;;;;;;;;5063380;28;20052;-74
2023/12/27 05:26:37;;;;;;;25.05;23.13;;;;;;;;;;5063030;28;20055;-74
2023/12/27 05:29:08;;;;;;;23.38;21.45;;;;;;;;;;5062999;28;20040;-74
2023/12/27 05:31:39;;;;;;;27.10;24.40;;;;;;;;;;5063272;28;20044;-73
2023/12/27 05:34:10;;;;;;;25.45;23.40;;;;;;;;;;5061365;28;20419;-75
2023/12/27 05:36:41;;;;;;;24.05;22.13;;;;;;;;;;5063142;28;20049;-73
2023/12/27 05:39:12;;;;;;;28.67;26.52;;;;;;;;;;5063019;28;20044;-74
2023/12/27 05:41:43;;;;;;;24.77;22.73;;;;;;;;;;5063897;28;20040;-73
2023/12/27 05:44:14;;;;;;;29.70;27.17;;;;;;;;;;5063018;28;20040;-73
2023/12/27 05:46:45;;;;;;;24.13;20.15;;;;;;;;;;5063674;28;20048;-73
2023/12/27 05:49:15;;;;;;;23.15;21.20;;;;;;;;;;5062574;28;20059;-75
2023/12/27 05:51:46;;;;;;;20.48;18.98;;;;;;;;;;5062436;28;20534;-74
2023/12/27 05:54:18;;;;;;;22.80;20.65;;;;;;;;;;5062927;28;20044;-73
2023/12/27 05:56:49;;;;;;;25.25;18.73;;;;;;;;;;5063146;28;20045;-74
2023/12/27 05:59:20;;;;;;;20.67;18.92;;;;;;;;;;5062883;28;20338;-74
2023/12/27 06:01:54;;;;;;;23.38;21.90;;;;;;;;;;5062335;28;20051;-74
2023/12/27 06:04:27;;;;;;;22.45;20.85;;;;;;;;;;5061890;28;20064;-74
2023/12/27 06:07:00;;;;;;;22.73;20.98;;;;;;;;;;5062540;28;20527;-74
2023/12/27 06:09:31;;;;;;;22.40;20.45;;;;;;;;;;5061812;28;20052;-74
2023/12/27 06:12:02;;;;;;;21.92;16.30;;;;;;;;;;5062758;28;20045;-73
2023/12/27 06:14:32;;;;;;;22.25;19.95;;;;;;;;;;5062260;28;20059;-74
2023/12/27 06:17:03;;;;;;;24.15;22.30;;;;;;;;;;5062257;28;20053;-74
2023/12/27 06:19:37;;;;;;;17.40;14.40;;;;;;;;;;5063612;28;20049;-73
2023/12/27 06:22:08;;;;;;;18.98;17.33;;;;;;;;;;5061689;28;20511;-73
2023/12/27 06:24:38;;;;;;;21.95;20.33;;;;;;;;;;5060308;28;20423;-74
2023/12/27 06:27:10;;;;;;;24.05;22.40;;;;;;;;;;5062167;28;20495;-74
2023/12/27 06:29:41;;;;;;;44.28;41.10;;;;;;;;;;5062750;28;20056;-74
2023/12/27 06:32:12;;;;;;;34.35;32.25;;;;;;;;;;5062859;28;20499;-73
2023/12/27 06:34:43;;;;;;;45.33;41.85;;;;;;;;;;5062084;28;20044;-74
2023/12/27 06:37:14;;;;;;;44.10;41.22;;;;;;;;;;5061302;28;20048;-74
2023/12/27 06:39:45;;;;;;;41.35;37.63;;;;;;;;;;5061672;28;20040;-74
2023/12/27 06:42:15;;;;;;;37.25;34.78;;;;;;;;;;5061227;28;20607;-73
2023/12/27 06:44:46;;;;;;;33.30;30.90;;;;;;;;;;5062037;28;20621;-75
2023/12/27 06:47:16;;;;;;;40.90;37.95;;;;;;;;;;5062789;28;20053;-74
2023/12/27 06:49:47;;;;;;;38.03;35.00;;;;;;;;;;5061598;28;20049;-74
2023/12/27 06:52:18;;;;;;;38.53;35.72;;;;;;;;;;5062598;28;20044;-74
2023/12/27 06:54:50;;;;;;;29.75;27.33;;;;;;;;;;5062508;28;20500;-73
2023/12/27 06:57:21;;;;;;;30.88;28.85;;;;;;;;;;5062856;28;20419;-74
2023/12/27 06:59:52;;;;;;;33.28;30.67;;;;;;;;;;5062481;28;20759;-74
2023/12/27 07:02:22;;;;;;;33.42;30.92;;;;;;;;;;5061873;28;20503;-73
2023/12/27 07:04:52;;;;;;;33.25;31.05;;;;;;;;;;5062774;28;20499;-74
2023/12/27 07:07:24;;;;;;;33.25;31.02;;;;;;;;;;5062486;28;20047;-74
2023/12/27 07:09:53;;;;;;;26.50;24.33;;;;;;;;;;5061979;28;20048;-74
2023/12/27 07:12:25;;;;;;;25.08;22.83;;;;;;;;;;5061563;28;20060;-74
2023/12/27 07:14:55;;;;;;;26.42;24.30;;;;;;;;;;5061339;28;20613;-74
2023/12/27 07:17:27;;;;;;;24.15;22.48;;;;;;;;;;5061526;28;20517;-74
2023/12/27 07:19:57;;;;;;;25.35;23.63;;;;;;;;;;5061459;28;20053;-74
2023/12/27 07:22:27;;;;;;;20.25;19.05;;;;;;;;;;5061164;28;20530;-74
2023/12/27 07:24:59;;;;;;;20.88;19.20;;;;;;;;;;5061013;28;20048;-74
2023/12/27 07:27:30;;;;;;;23.38;21.52;;;;;;;;;;5061060;28;20059;-74
2023/12/27 07:30:02;;;;;;;25.63;23.27;;;;;;;;;;5061674;28;20059;-73
2023/12/27 07:32:35;;;;;;;23.52;21.60;;;;;;;;;;5061691;28;20515;-73
2023/12/27 07:35:05;;;;;;;24.00;22.13;;;;;;;;;;5061310;28;20053;-73
2023/12/27 07:37:36;;;;;;;26.40;23.98;;;;;;;;;;5061478;28;20487;-75
2023/12/27 07:40:07;;;;;;;26.83;24.77;;;;;;;;;;5061012;28;20059;-73
2023/12/27 07:42:39;;;;;;;25.58;23.95;;;;;;;;;;5061504;28;20048;-73
2023/12/27 07:45:09;;;;;;;25.00;23.20;;;;;;;;;;5061070;28;20063;-74
2023/12/27 07:47:41;;;;;;;25.05;23.42;;;;;;;;;;5061367;28;20055;-74
2023/12/27 07:50:12;;;;;;;24.67;22.52;;;;;;;;;;5061237;28;20048;-74
2023/12/27 07:52:42;;;;;;;26.23;23.92;;;;;;;;;;5062906;28;20052;-74
2023/12/27 07:55:12;;;;;;;27.80;25.48;;;;;;;;;;5064965;28;20506;-74
2023/12/27 07:57:45;;;;;;;23.40;21.35;;;;;;;;;;5064969;28;20048;-74
2023/12/27 08:00:18;;;;;;;25.40;23.15;;;;;;;;;;5064966;28;20048;-73
2023/12/27 08:02:50;;;;;;;23.08;21.50;;;;;;;;;;5065407;28;20059;-74
2023/12/27 08:05:20;;;;;;;22.55;20.90;;;;;;;;;;5064935;28;20435;-74
2023/12/27 08:07:50;;;;;;;21.17;19.65;;;;;;;;;;5065740;28;20052;-74
2023/12/27 08:10:20;;;;;;;23.45;21.60;;;;;;;;;;5064739;28;20040;-74
2023/12/27 08:12:51;;;;;;;22.30;20.40;;;;;;;;;;5064601;28;20048;-75
2023/12/27 08:15:22;;;;;;;22.30;20.83;;;;;;;;;;5065121;28;20048;-74
2023/12/27 08:17:53;;;;;;;22.50;21.00;;;;;;;;;;5065191;28;20053;-74
2023/12/27 08:20:24;;;;;;;21.45;19.75;;;;;;;;;;5064793;28;20051;-74
2023/12/27 08:22:58;;;;;;;23.45;21.70;;;;;;;;;;5063218;28;20052;-74
2023/12/27 08:25:29;;;;;;;21.13;19.23;;;;;;;;;;5064077;28;20049;-74
2023/12/27 08:28:00;;;;;;;24.35;22.35;;;;;;;;;;5065170;28;20055;-74
2023/12/27 08:30:31;;;;;;;23.02;21.17;;;;;;;;;;5064376;28;20051;-74
2023/12/27 08:33:03;;;;;;;22.75;21.17;;;;;;;;;;5064731;28;20056;-74
2023/12/27 08:35:35;;;;;;;21.05;19.65;;;;;;;;;;5064126;28;20061;-73
2023/12/27 08:38:05;;;;;;;25.80;23.92;;;;;;;;;;5064064;28;20407;-74
2023/12/27 08:40:35;;;;;;;26.38;24.45;;;;;;;;;;5064605;28;20869;-74
2023/12/27 08:43:06;;;;;;;23.38;20.90;;;;;;;;;;5064339;28;20847;-74
2023/12/27 08:45:37;;;;;;;21.77;20.00;;;;;;;;;;5062924;28;20075;-74
2023/12/27 08:48:08;;;;;;;24.20;22.40;;;;;;;;;;5063973;28;20059;-73
2023/12/27 08:50:38;;;;;;;25.08;23.27;;;;;;;;;;5064141;28;20045;-74
2023/12/27 08:53:09;;;;;;;21.95;20.00;;;;;;;;;;5063894;28;20060;-74
2023/12/27 08:55:40;;;;;;;24.40;22.00;;;;;;;;;;5064708;28;20052;-74
2023/12/27 08:58:12;;;;;;;25.02;23.35;;;;;;;;;;5064067;28;20045;-74
2023/12/27 09:00:42;;;;;;;25.58;23.58;;;;;;;;;;5063669;28;20048;-74
2023/12/27 09:03:13;;;;;;;22.95;21.35;;;;;;;;;;5064366;28;20059;-75
2023/12/27 09:05:46;;;;;;;24.92;22.63;;;;;;;;;;5063347;28;20040;-74
2023/12/27 09:08:18;;;;;;;28.15;26.20;;;;;;;;;;5063857;28;20053;-74
2023/12/27 09:10:48;;;;;;;26.33;24.67;;;;;;;;;;5063999;28;20044;-74
2023/12/27 09:13:20;;;;;;;29.15;26.63;;;;;;;;;;5063318;28;20720;-74
2023/12/27 09:15:51;;;;;;;25.90;24.13;;;;;;;;;;5064122;28;20052;-74
2023/12/27 09:18:22;;;;;;;26.75;24.70;;;;;;;;;;5063532;28;20048;-74
2023/12/27 09:20:52;;;;;;;26.77;24.85;;;;;;;;;;5063614;28;20617;-74
2023/12/27 09:23:26;;;;;;;26.30;24.10;;;;;;;;;;5063265;28;20060;-75
2023/12/27 09:25:56;;;;;;;24.25;22.35;;;;;;;;;;5063498;28;20396;-74
2023/12/27 09:28:27;;;;;;;24.42;22.30;;;;;;;;;;5064521;28;20044;-74
2023/12/27 09:30:58;;;;;;;26.85;24.75;;;;;;;;;;5063412;28;20049;-75
2023/12/27 09:33:30;;;;;;;23.67;21.80;;;;;;;;;;5063546;28;20052;-74
2023/12/27 09:36:02;;;;;;;25.20;22.92;;;;;;;;;;5062851;28;20505;-74
2023/12/27 09:38:33;;;;;;;24.88;22.63;;;;;;;;;;5063193;28;20594;-74
2023/12/27 09:41:05;;;;;;;26.50;24.42;;;;;;;;;;5063347;28;20052;-74
2023/12/27 09:43:37;;;;;;;27.27;25.27;;;;;;;;;;5063223;28;20052;-74
2023/12/27 09:46:10;;;;;;;40.75;37.28;;;;;;;;;;5062859;28;20037;-74
2023/12/27 09:48:45;;;;;;;30.17;27.90;;;;;;;;;;5061164;28;20063;-74
2023/12/27 09:51:22;;;;;;;25.55;23.60;;;;;;;;;;5063327;28;20036;-74
2023/12/27 09:53:54;;;;;;;26.23;24.02;;;;;;;;;;5062731;28;20059;-74
2023/12/27 09:56:28;;;;;;;24.00;21.92;;;;;;;;;;5063265;28;20053;-74
2023/12/27 09:59:06;;;;;;;21.08;19.33;;;;;;;;;;5062667;28;20051;-74
2023/12/27 10:01:41;;;;;;;19.60;17.98;;;;;;;;;;5063045;28;20064;-74
2023/12/27 10:04:35;;;;;;;22.45;20.70;;;;;;;;;;5062948;28;20055;-74
2023/12/27 10:07:07;;;;;;;23.45;21.60;;;;;;;;;;5062538;28;20048;-74
2023/12/27 10:09:38;;;;;;;19.42;17.83;;;;;;;;;;5062874;28;20063;-74
2023/12/27 10:12:09;;;;;;;23.42;20.92;;;;;;;;;;5062893;28;20502;-86
2023/12/27 10:14:42;;;;;;;19.95;18.17;;;;;;;;;;5062758;28;20503;-74
2023/12/27 10:17:12;;;;;;;21.42;19.33;;;;;;;;;;5061544;28;20045;-76
2023/12/27 10:19:44;;;;;;;23.75;21.30;;;;;;;;;;5062513;28;20419;-74
2023/12/27 10:22:17;;;;;;;26.30;24.50;;;;;;;;;;5062664;28;20506;-75
2023/12/27 10:24:48;;;;;;;28.00;22.48;;;;;;;;;;5063294;28;20056;-74
2023/12/27 10:27:21;;;;;;;21.38;19.48;;;;;;;;;;5062252;28;20047;-75
2023/12/27 10:29:51;;;;;;;24.00;22.00;;;;;;;;;;5062855;28;20048;-74
2023/12/27 10:32:21;;;;;;;25.90;22.02;;;;;;;;;;5063111;28;20040;-75
2023/12/27 10:34:52;;;;;;;19.35;17.60;;;;;;;;;;5061921;28;20052;-74
2023/12/27 10:37:25;;;;;;;22.60;21.02;;;;;;;;;;5062284;28;20483;-75
2023/12/27 10:39:56;;;;;;;21.65;19.67;;;;;;;;;;5041843;28;20069;-76
2023/12/27 10:42:28;;;;;;;27.58;24.98;;;;;;;;;;5042354;28;20053;-74
2023/12/27 10:44:58;;;;;;;25.33;22.73;;;;;;;;;;5042171;28;20218;-75
2023/12/27 10:47:31;;;;;;;25.33;22.73;;;;;;;;;;5041379;28;20049;-74
2023/12/27 10:50:05;;;;;;;29.45;26.90;;;;;;;;;;5041429;28;20048;-76
2023/12/27 10:52:38;;;;;;;25.90;23.90;;;;;;;;;;5041547;28;20053;-75
2023/12/27 10:55:13;;;;;;;23.15;21.33;;;;;;;;;;5042398;28;20052;-75
2023/12/27 10:57:46;;;;;;;25.98;23.52;;;;;;;;;;5042161;28;20056;-74
2023/12/27 11:00:20;;;;;;;26.15;23.48;;;;;;;;;;5042152;28;20496;-75
2023/12/27 11:02:51;;;;;;;25.10;22.77;;;;;;;;;;5042853;28;20045;-77
2023/12/27 11:05:29;;;;;;;26.02;22.50;;;;;;;;;;5042160;28;20052;-75
2023/12/27 11:08:02;;;;;;;22.98;20.83;;;;;;;;;;5041093;28;20060;-76
2023/12/27 11:10:35;;;;;;;28.88;20.65;;;;;;;;;;5041044;28;20557;-75
2023/12/27 11:13:10;;;;;;;22.40;20.80;;;;;;;;;;5042236;28;20535;-75
2023/12/27 11:15:45;;;;;;;25.02;22.83;;;;;;;;;;5041874;28;20056;-76
2023/12/27 11:18:17;;;;;;;26.92;24.90;;;;;;;;;;5056936;28;20057;-75
2023/12/27 11:20:51;;;;;;;22.73;20.85;;;;;;;;;;5042097;28;20049;-76
2023/12/27 11:23:21;;;;;;;33.97;31.25;;;;;;;;;;5041327;28;20052;-75
2023/12/27 11:25:56;;;;;;;24.38;22.17;;;;;;;;;;5041523;28;20531;-75
2023/12/27 11:28:27;;;;;;;;;;;;;;;;;;5041618;28;20055;-77
2023/12/27 11:30:58;;;;;;;21.77;19.70;;;;;;;;;;5041139;28;21076;-76
2023/12/27 11:33:29;;;;;;;21.92;20.02;;;;;;;;;;5041666;28;20057;-74
2023/12/27 11:36:03;;;;;;;26.23;23.50;;;;;;;;;;5041033;28;20524;-73
2023/12/27 11:38:36;;;;;;;18.15;16.73;;;;;;;;;;5041215;28;20045;-75
2023/12/27 11:41:06;;;;;;;22.05;19.98;;;;;;;;;;5041143;28;20883;-75
2023/12/27 11:44:03;;;;;;;21.63;19.70;;;;;;;;;;5040992;28;20045;-75
2023/12/27 11:46:34;;;;;;;16.08;13.15;;;;;;;;;;5041004;28;20044;-75
2023/12/27 11:49:05;;;;;;;15.52;14.13;;;;;;;;;;5039911;28;20055;-76
2023/12/27 11:51:38;;;;;;;19.67;17.92;;;;;;;;;;5041316;28;20867;-77
2023/12/27 11:54:19;;;;;;;24.40;22.02;;;;;;;;;;5041741;28;20045;-83
2023/12/27 11:56:52;;;;;;;19.55;17.92;;;;;;;;;;5041239;28;20049;-76
2023/12/27 11:59:25;;;;;;;21.13;19.00;;;;;;;;;;5040828;28;20080;-75
2023/12/27 12:01:59;;;;;;;20.77;18.73;;;;;;;;;;5040871;28;20041;-77
2023/12/27 12:04:47;;;;;;;22.13;19.13;;;;;;;;;;5041172;28;20049;-76
2023/12/27 12:07:23;;;;;;;15.27;13.98;;;;;;;;;;5040946;28;20056;-79
2023/12/27 12:09:56;;;;;;;15.68;13.02;;;;;;;;;;5041096;28;20049;-75
2023/12/27 12:12:27;;;;;;;25.73;22.65;;;;;;;;;;5040910;28;20052;-84
2023/12/27 12:15:01;;;;;;;18.95;16.35;;;;;;;;;;5055621;28;20041;-77
2023/12/27 12:17:32;;;;;;;23.05;19.58;;;;;;;;;;5040783;28;20060;-74
2023/12/27 12:20:04;;;;;;;17.08;15.60;;;;;;;;;;5040807;28;20052;-75
2023/12/27 12:22:38;;;;;;;19.95;15.60;;;;;;;;;;5041694;28;20037;-76
2023/12/27 12:25:08;;;;;;;16.52;14.80;;;;;;;;;;5040659;28;20059;-75
2023/12/27 12:27:43;;;;;;;18.80;16.98;;;;;;;;;;5040755;28;20049;-75
2023/12/27 12:30:15;;;;;;;18.90;17.13;;;;;;;;;;5040980;28;20048;-75
2023/12/27 12:32:49;;;;;;;18.38;15.57;;;;;;;;;;5041107;28;20120;-76
2023/12/27 12:35:20;;;;;;;19.27;17.70;;;;;;;;;;5041284;28;20057;-76
2023/12/27 12:37:50;;;;;;;15.75;14.15;;;;;;;;;;5040122;28;20052;-75
2023/12/27 12:40:22;;;;;;;16.23;14.30;;;;;;;;;;5043535;28;20044;-76
2023/12/27 12:42:53;;;;;;;17.60;15.73;;;;;;;;;;5044598;28;20045;-75
2023/12/27 12:45:23;;;;;;;18.23;16.35;;;;;;;;;;5043883;28;20048;-76
2023/12/27 12:47:53;;;;;;;16.13;14.77;;;;;;;;;;5043768;28;20045;-76
2023/12/27 12:50:24;;;;;;;17.20;15.55;;;;;;;;;;5044298;28;20048;-74
2023/12/27 12:52:56;;;;;;;17.58;16.05;;;;;;;;;;5043118;28;20053;-73
2023/12/27 12:55:29;;;;;;;16.27;14.93;;;;;;;;;;5043064;28;20679;-76
2023/12/27 12:58:00;;;;;;;18.00;16.13;;;;;;;;;;5044317;28;20057;-76
2023/12/27 13:00:31;;;;;;;14.13;12.38;;;;;;;;;;5043391;28;20053;-75
2023/12/27 13:03:08;;;;;;;14.07;12.55;;;;;;;;;;5043776;28;20049;-74
2023/12/27 13:05:41;;;;;;;17.30;15.02;;;;;;;;;;5044275;28;20542;-73
2023/12/27 13:08:15;;;;;;;15.65;14.30;;;;;;;;;;5043710;28;20056;-74
2023/12/27 13:10:46;;;;;;;14.80;13.50;;;;;;;;;;5043607;28;20752;-73
2023/12/27 13:13:17;;;;;;;21.10;19.48;;;;;;;;;;5044019;28;20123;-73
2023/12/27 13:15:47;;;;;;;13.40;12.02;;;;;;;;;;5043375;28;20052;-76
2023/12/27 13:18:18;;;;;;;17.15;15.82;;;;;;;;;;5043831;28;20049;-75
2023/12/27 13:20:48;;;;;;;16.92;15.48;;;;;;;;;;5043056;28;20055;-74
2023/12/27 13:23:18;;;;;;;19.75;17.92;;;;;;;;;;5043862;28;20056;-74
2023/12/27 13:25:50;;;;;;;17.63;16.00;;;;;;;;;;5042686;28;20052;-74
2023/12/27 13:28:25;;;;;;;13.23;12.07;;;;;;;;;;5043797;28;20059;-74
2023/12/27 13:30:55;;;;;;;16.50;14.98;;;;;;;;;;5044315;28;20163;-73
2023/12/27 13:33:26;;;;;;;16.10;14.68;;;;;;;;;;5042931;28;20048;-74
2023/12/27 13:35:57;;;;;;;16.05;14.57;;;;;;;;;;5043577;28;20518;-73
2023/12/27 13:38:29;;;;;;;17.38;15.98;;;;;;;;;;5043901;28;20052;-74
2023/12/27 13:41:00;;;;;;;16.33;14.85;;;;;;;;;;5043426;28;20053;-73
2023/12/27 13:43:30;;;;;;;17.08;15.40;;;;;;;;;;5043702;28;20607;-73
2023/12/27 13:46:00;;;;;;;16.98;15.73;;;;;;;;;;5043957;28;20057;-74
2023/12/27 13:48:32;;;;;;;13.23;12.00;;;;;;;;;;5043758;28;20049;-74
2023/12/27 13:51:03;;;;;;;14.10;12.73;;;;;;;;;;5042793;28;20044;-73
2023/12/27 13:53:35;;;;;;;15.07;13.73;;;;;;;;;;5041512;28;20051;-74
2023/12/27 13:56:05;;;;;;;17.13;15.82;;;;;;;;;;5043071;28;20049;-73
2023/12/27 13:58:36;;;;;;;19.20;17.52;;;;;;;;;;5043317;28;20056;-76
2023/12/27 14:01:08;;;;;;;14.32;13.02;;;;;;;;;;5043135;28;20492;-75
2023/12/27 14:03:38;;;;;;;16.20;14.77;;;;;;;;;;5042799;28;20500;-76
2023/12/27 14:06:08;;;;;;;16.45;14.98;;;;;;;;;;5042445;28;20045;-76
2023/12/27 14:08:43;;;;;;;16.77;15.20;;;;;;;;;;5041702;28;20057;-75
2023/12/27 14:11:14;;;;;;;22.60;20.38;;;;;;;;;;5042434;28;20415;-78
2023/12/27 14:13:46;;;;;;;17.63;15.80;;;;;;;;;;5042554;28;20060;-78
2023/12/27 14:16:16;;;;;;;35.05;32.20;;;;;;;;;;5042976;28;20056;-74
2023/12/27 14:18:46;;;;;;;12.65;11.73;;;;;;;;;;5043656;28;20385;-74
2023/12/27 14:21:18;;;;;;;18.63;16.90;;;;;;;;;;5042675;28;20036;-76
2023/12/27 14:23:50;;;;;;;14.30;12.93;;;;;;;;;;5043122;28;20052;-75
2023/12/27 14:26:21;;;;;;;18.10;16.33;;;;;;;;;;5042350;28;20053;-77
2023/12/27 14:28:51;;;;;;;14.02;12.73;;;;;;;;;;5042824;28;20056;-78
2023/12/27 14:31:23;;;;;;;17.77;16.25;;;;;;;;;;5042348;28;20049;-83
2023/12/27 14:33:54;;;;;;;19.20;13.88;;;;;;;;;;5042727;28;20064;-75
2023/12/27 14:36:29;;;;;;;14.90;13.57;;;;;;;;;;5042215;28;20055;-75
2023/12/27 14:39:05;;;;;;;21.23;19.50;;;;;;;;;;5042065;28;20049;-76
2023/12/27 14:41:43;;;;;;;15.52;14.38;;;;;;;;;;5042544;28;20056;-76
2023/12/27 14:44:15;;;;;;;17.63;15.90;;;;;;;;;;5042496;28;20416;-76